createdAt,value
2023-01-29T00:02:10.380Z,8.43
2023-01-29T00:04:36.987Z,8.43
2023-01-29T00:07:03.757Z,9.02
2023-01-29T00:09:31.994Z,8.52
2023-01-29T00:11:58.676Z,7.70
2023-01-29T00:14:27.290Z,9.43
2023-01-29T00:16:54.346Z,8.13
2023-01-29T00:19:21.242Z,8.55
2023-01-29T00:21:47.836Z,8.25
2023-01-29T00:24:14.608Z,6.65
2023-01-29T00:26:42.504Z,6.97
2023-01-29T00:29:09.180Z,6.68
2023-01-29T00:31:35.984Z,9.50
2023-01-29T00:34:03.722Z,7.68
2023-01-29T00:36:30.431Z,6.60
2023-01-29T00:38:59.182Z,6.68
2023-01-29T00:41:49.099Z,7.43
2023-01-29T00:44:34.870Z,9.75
2023-01-29T00:47:01.766Z,6.80
2023-01-29T00:49:30.220Z,10.18
2023-01-29T00:52:15.249Z,9.25
2023-01-29T00:54:41.891Z,7.05
2023-01-29T00:57:08.733Z,8.32
2023-01-29T00:59:35.376Z,7.13
2023-01-29T01:02:20.762Z,7.60
2023-01-29T01:04:47.398Z,10.40
2023-01-29T01:07:14.000Z,7.05
2023-01-29T01:09:59.661Z,9.88
2023-01-29T01:12:26.470Z,8.70
2023-01-29T01:14:53.188Z,8.20
2023-01-29T01:17:19.856Z,7.30
2023-01-29T01:19:46.514Z,7.72
2023-01-29T01:22:13.402Z,7.05
2023-01-29T01:24:40.292Z,6.38
2023-01-29T01:27:06.970Z,10.23
2023-01-29T01:29:33.751Z,6.78
2023-01-29T01:32:00.516Z,7.20
2023-01-29T01:34:27.402Z,10.60
2023-01-29T01:36:56.066Z,6.93
2023-01-29T01:39:23.883Z,7.35
2023-01-29T01:41:53.672Z,7.50
2023-01-29T01:44:52.446Z,9.88
2023-01-29T01:47:39.085Z,8.30
2023-01-29T01:50:20.573Z,9.30
2023-01-29T01:52:55.498Z,8.43
2023-01-29T01:55:26.574Z,7.97
2023-01-29T01:57:59.040Z,6.68
2023-01-29T02:00:26.451Z,6.57
2023-01-29T02:03:13.040Z,8.38
2023-01-29T02:05:59.075Z,9.63
2023-01-29T02:08:56.563Z,7.30
2023-01-29T02:11:24.217Z,9.45
2023-01-29T02:13:53.779Z,7.40
2023-01-29T02:16:24.054Z,7.40
2023-01-29T02:18:51.267Z,7.15
2023-01-29T02:21:33.209Z,8.43
2023-01-29T02:24:33.468Z,7.32
2023-01-29T02:27:16.160Z,8.32
2023-01-29T02:29:47.584Z,7.13
2023-01-29T02:32:28.583Z,8.55
2023-01-29T02:35:29.901Z,7.35
2023-01-29T02:38:11.533Z,7.80
2023-01-29T02:40:55.742Z,7.25
2023-01-29T02:43:40.343Z,7.95
2023-01-29T02:46:16.117Z,7.68
2023-01-29T02:49:10.527Z,9.18
2023-01-29T02:51:58.897Z,6.13
2023-01-29T02:54:37.496Z,9.10
2023-01-29T02:57:44.569Z,7.40
2023-01-29T03:00:15.009Z,7.88
2023-01-29T03:02:50.790Z,8.10
2023-01-29T03:05:33.831Z,8.35
2023-01-29T03:08:10.195Z,8.15
2023-01-29T03:11:02.728Z,5.43
2023-01-29T03:13:40.380Z,6.85
2023-01-29T03:16:27.328Z,9.15
2023-01-29T03:19:10.311Z,8.35
2023-01-29T03:22:04.299Z,7.85
2023-01-29T03:25:19.395Z,3.70
2023-01-29T03:28:14.170Z,4.25
2023-01-29T03:31:17.656Z,7.43
2023-01-29T03:34:16.597Z,8.18
2023-01-29T03:36:59.207Z,7.38
2023-01-29T03:39:31.371Z,9.38
2023-01-29T03:42:12.067Z,10.23
2023-01-29T03:44:57.556Z,8.85
2023-01-29T03:47:48.627Z,8.32
2023-01-29T03:50:36.699Z,7.53
2023-01-29T03:53:43.949Z,7.35
2023-01-29T03:56:33.300Z,8.82
2023-01-29T03:59:04.584Z,9.98
2023-01-29T04:01:40.387Z,8.57
2023-01-29T04:04:16.493Z,7.95
2023-01-29T04:06:46.028Z,8.05
2023-01-29T04:09:36.374Z,8.63
2023-01-29T04:12:11.281Z,6.50
2023-01-29T04:14:38.972Z,8.73
2023-01-29T04:17:17.628Z,7.75
2023-01-29T04:19:44.800Z,8.88
2023-01-29T04:22:19.615Z,7.43
2023-01-29T04:24:48.235Z,9.82
2023-01-29T04:28:01.793Z,10.32
2023-01-29T04:30:56.923Z,8.15
2023-01-29T04:33:42.373Z,8.65
2023-01-29T04:36:19.650Z,7.72
2023-01-29T04:38:58.417Z,9.02
2023-01-29T04:41:32.245Z,9.68
2023-01-29T04:44:22.085Z,9.65
2023-01-29T04:47:03.843Z,9.07
2023-01-29T04:49:43.604Z,8.38
2023-01-29T04:52:16.283Z,9.00
2023-01-29T04:54:54.497Z,6.95
2023-01-29T04:57:46.294Z,6.75
2023-01-29T05:00:22.723Z,6.88
2023-01-29T05:02:49.865Z,8.02
2023-01-29T05:05:19.834Z,8.68
2023-01-29T05:07:47.555Z,11.93
2023-01-29T05:10:17.392Z,9.90
2023-01-29T05:12:48.941Z,6.97
2023-01-29T05:15:23.457Z,7.45
2023-01-29T05:17:50.218Z,7.10
2023-01-29T05:20:17.618Z,6.90
2023-01-29T05:22:45.895Z,7.63
2023-01-29T05:25:33.127Z,10.25
2023-01-29T05:28:14.116Z,7.45
2023-01-29T05:30:40.760Z,9.10
2023-01-29T05:33:20.000Z,9.38
2023-01-29T05:35:47.110Z,7.82
2023-01-29T05:38:14.572Z,7.53
2023-01-29T05:40:41.582Z,7.13
2023-01-29T05:43:22.635Z,9.73
2023-01-29T05:46:00.203Z,9.75
2023-01-29T05:48:29.055Z,9.05
2023-01-29T05:51:01.163Z,8.07
2023-01-29T05:53:29.568Z,7.57
2023-01-29T05:55:57.345Z,8.80
2023-01-29T05:58:25.463Z,8.20
2023-01-29T06:00:52.130Z,6.07
2023-01-29T06:03:19.051Z,8.25
2023-01-29T06:05:45.719Z,8.85
2023-01-29T06:08:13.324Z,8.45
2023-01-29T06:10:40.169Z,8.38
2023-01-29T06:13:07.171Z,7.93
2023-01-29T06:15:34.165Z,9.35
2023-01-29T06:18:00.751Z,7.85
2023-01-29T06:20:27.453Z,5.95
2023-01-29T06:22:54.053Z,8.88
2023-01-29T06:25:20.668Z,7.32
2023-01-29T06:27:51.024Z,8.05
2023-01-29T06:30:18.070Z,7.60
2023-01-29T06:32:44.956Z,10.52
2023-01-29T06:35:11.790Z,7.70
2023-01-29T06:37:38.404Z,7.80
2023-01-29T06:40:05.563Z,8.73
2023-01-29T06:42:32.200Z,8.65
2023-01-29T06:44:58.894Z,8.77
2023-01-29T06:47:27.605Z,8.93
2023-01-29T06:49:54.214Z,10.45
2023-01-29T06:52:20.905Z,8.32
2023-01-29T06:54:47.579Z,9.13
2023-01-29T06:57:14.313Z,10.20
2023-01-29T06:59:40.889Z,7.07
2023-01-29T07:02:07.523Z,7.93
2023-01-29T07:04:35.543Z,10.02
2023-01-29T07:07:02.201Z,9.02
2023-01-29T07:09:28.835Z,8.35
2023-01-29T07:11:55.461Z,6.50
2023-01-29T07:14:22.146Z,9.23
2023-01-29T07:16:48.794Z,10.43
2023-01-29T07:19:15.536Z,9.80
2023-01-29T07:21:42.173Z,7.85
2023-01-29T07:24:09.154Z,10.15
2023-01-29T07:26:35.789Z,9.00
2023-01-29T07:29:02.452Z,6.75
2023-01-29T07:31:29.146Z,9.07
2023-01-29T07:33:56.044Z,6.72
2023-01-29T07:36:24.086Z,9.55
2023-01-29T07:38:51.405Z,10.45
2023-01-29T07:41:18.090Z,11.00
2023-01-29T07:43:44.819Z,9.18
2023-01-29T07:46:11.600Z,9.00
2023-01-29T07:48:38.346Z,5.93
2023-01-29T07:51:05.237Z,9.40
2023-01-29T07:53:31.983Z,10.30
2023-01-29T07:55:58.580Z,9.27
2023-01-29T07:58:25.295Z,7.50
2023-01-29T08:00:51.898Z,10.23
2023-01-29T08:03:20.316Z,6.05
2023-01-29T08:05:47.203Z,10.80
2023-01-29T08:08:14.307Z,12.25
2023-01-29T08:10:41.935Z,10.00
2023-01-29T08:13:09.784Z,9.45
2023-01-29T08:15:39.097Z,3.40
2023-01-29T08:18:06.145Z,7.68
2023-01-29T08:20:32.819Z,7.30
2023-01-29T08:23:04.766Z,8.40
2023-01-29T08:25:31.559Z,7.10
2023-01-29T08:27:59.321Z,8.85
2023-01-29T08:30:28.210Z,5.32
2023-01-29T08:32:55.248Z,4.60
2023-01-29T08:35:22.112Z,8.13
2023-01-29T08:38:03.489Z,10.80
2023-01-29T08:40:32.438Z,10.88
2023-01-29T08:43:02.197Z,10.75
2023-01-29T08:45:30.472Z,5.85
2023-01-29T08:47:57.159Z,9.60
2023-01-29T08:50:23.831Z,9.70
2023-01-29T08:52:50.542Z,9.75
2023-01-29T08:55:17.388Z,6.28
2023-01-29T08:57:44.297Z,9.18
2023-01-29T09:00:11.599Z,7.70
2023-01-29T09:02:38.367Z,7.57
2023-01-29T09:05:05.607Z,7.68
2023-01-29T09:07:32.671Z,9.32
2023-01-29T09:09:59.302Z,7.40
2023-01-29T09:12:25.983Z,7.13
2023-01-29T09:14:52.592Z,5.25
2023-01-29T09:17:19.349Z,7.80
2023-01-29T09:19:46.003Z,9.05
2023-01-29T09:22:12.761Z,8.15
2023-01-29T09:24:39.500Z,8.57
2023-01-29T09:27:06.296Z,6.80
2023-01-29T09:29:35.697Z,6.50
2023-01-29T09:32:04.837Z,8.18
2023-01-29T09:34:31.619Z,10.95
2023-01-29T09:36:58.882Z,10.27
2023-01-29T09:39:25.644Z,8.05
2023-01-29T09:42:15.859Z,5.75
2023-01-29T09:44:57.630Z,7.72
2023-01-29T09:47:26.702Z,9.00
2023-01-29T09:50:01.701Z,8.35
2023-01-29T09:52:32.506Z,8.52
2023-01-29T09:55:24.594Z,7.45
2023-01-29T09:58:00.831Z,6.25
2023-01-29T10:00:30.380Z,5.95
2023-01-29T10:03:34.428Z,7.93
2023-01-29T10:06:10.146Z,5.72
2023-01-29T10:09:04.379Z,6.50
2023-01-29T10:11:52.514Z,8.18
2023-01-29T10:14:59.622Z,6.53
2023-01-29T10:17:44.348Z,9.30
2023-01-29T10:20:19.627Z,9.75
2023-01-29T10:22:54.211Z,10.13
2023-01-29T10:25:22.523Z,6.13
2023-01-29T10:27:54.950Z,8.57
2023-01-29T10:30:34.589Z,8.57
2023-01-29T10:33:22.095Z,7.72
2023-01-29T10:35:55.321Z,5.85
2023-01-29T10:38:51.990Z,8.57
2023-01-29T10:41:42.788Z,8.93
2023-01-29T10:44:37.683Z,7.88
2023-01-29T10:47:23.646Z,5.85
2023-01-29T10:49:56.019Z,5.57
2023-01-29T10:52:43.874Z,7.28
2023-01-29T10:55:31.645Z,8.15
2023-01-29T10:58:31.498Z,9.25
2023-01-29T11:00:58.808Z,10.65
2023-01-29T11:03:29.160Z,8.57
2023-01-29T11:06:13.974Z,8.38
2023-01-29T11:08:52.774Z,7.43
2023-01-29T11:11:22.379Z,9.63
2023-01-29T11:13:59.295Z,6.88
2023-01-29T11:16:29.166Z,6.20
2023-01-29T11:18:58.286Z,8.65
2023-01-29T11:21:26.264Z,6.80
2023-01-29T11:24:06.452Z,8.77
2023-01-29T11:26:37.584Z,6.88
2023-01-29T11:29:04.256Z,11.75
2023-01-29T11:31:38.693Z,5.90
2023-01-29T11:34:16.745Z,5.13
2023-01-29T11:36:44.970Z,7.82
2023-01-29T11:39:17.865Z,8.00
2023-01-29T11:41:58.078Z,7.72
2023-01-29T11:44:31.911Z,7.20
2023-01-29T11:47:16.574Z,6.57
2023-01-29T11:49:50.364Z,7.35
2023-01-29T11:52:23.259Z,8.10
2023-01-29T11:55:00.960Z,8.85
2023-01-29T11:57:29.613Z,9.68
2023-01-29T12:00:00.351Z,8.48
2023-01-29T12:02:35.604Z,9.07
2023-01-29T12:05:06.863Z,12.20
2023-01-29T12:07:34.994Z,4.93
2023-01-29T12:10:01.938Z,6.88
2023-01-29T12:12:30.988Z,4.90
2023-01-29T12:15:25.508Z,5.30
2023-01-29T12:18:02.698Z,6.47
2023-01-29T12:20:38.669Z,6.72
2023-01-29T12:23:11.078Z,6.15
2023-01-29T12:25:55.265Z,5.93
2023-01-29T12:28:39.322Z,9.48
2023-01-29T12:31:15.529Z,6.05
2023-01-29T12:33:51.691Z,10.07
2023-01-29T12:36:57.537Z,7.47
2023-01-29T12:39:24.277Z,9.15
2023-01-29T12:41:57.723Z,11.02
2023-01-29T12:44:59.095Z,7.65
2023-01-29T12:47:41.614Z,8.27
2023-01-29T12:50:19.669Z,5.55
2023-01-29T12:52:51.752Z,11.15
2023-01-29T12:55:26.313Z,6.95
2023-01-29T12:58:00.214Z,9.80
2023-01-29T13:00:33.947Z,7.90
2023-01-29T13:03:00.600Z,5.97
2023-01-29T13:05:52.862Z,9.80
2023-01-29T13:08:19.428Z,9.65
2023-01-29T13:10:50.753Z,9.05
2023-01-29T13:13:54.010Z,5.57
2023-01-29T13:16:26.016Z,9.45
2023-01-29T13:19:03.635Z,8.50
2023-01-29T13:21:39.867Z,7.55
2023-01-29T13:24:15.499Z,8.77
2023-01-29T13:26:46.286Z,10.00
2023-01-29T13:29:28.859Z,9.23
2023-01-29T13:31:57.919Z,4.43
2023-01-29T13:34:28.524Z,5.85
2023-01-29T13:36:58.475Z,8.45
2023-01-29T13:39:37.999Z,4.35
2023-01-29T13:42:18.927Z,9.82
2023-01-29T13:44:51.381Z,6.15
2023-01-29T13:49:56.896Z,10.10
2023-01-29T13:52:39.994Z,7.72
2023-01-29T13:55:26.241Z,5.65
2023-01-29T13:57:56.624Z,9.05
2023-01-29T14:00:25.077Z,8.48
2023-01-29T14:02:54.734Z,5.80
2023-01-29T14:05:31.005Z,7.95
2023-01-29T14:07:59.258Z,7.07
2023-01-29T14:10:37.489Z,6.75
2023-01-29T14:13:04.034Z,8.18
2023-01-29T14:15:32.259Z,9.18
2023-01-29T14:18:11.027Z,8.85
2023-01-29T14:23:28.727Z,6.45
2023-01-29T14:25:56.262Z,7.45
2023-01-29T14:28:27.388Z,5.90
2023-01-29T14:30:55.609Z,9.73
2023-01-29T14:33:34.911Z,7.60
2023-01-29T14:36:06.824Z,8.50
2023-01-29T14:38:34.567Z,7.75
2023-01-29T14:41:14.179Z,7.30
2023-01-29T14:43:41.402Z,6.55
2023-01-29T14:46:36.005Z,6.00
2023-01-29T14:49:03.095Z,7.78
2023-01-29T14:51:35.823Z,6.18
2023-01-29T14:54:34.077Z,7.28
2023-01-29T14:57:06.020Z,6.22
2023-01-29T14:59:46.221Z,8.40
2023-01-29T15:02:37.585Z,8.50
2023-01-29T15:07:40.078Z,7.20
2023-01-29T15:10:25.155Z,5.72
2023-01-29T15:13:00.511Z,6.95
2023-01-29T15:15:54.029Z,3.88
2023-01-29T15:18:40.305Z,7.35
2023-01-29T15:21:18.379Z,5.55
2023-01-29T15:23:46.785Z,5.70
2023-01-29T15:26:19.252Z,6.03
2023-01-29T15:31:25.785Z,7.10
2023-01-29T15:33:55.333Z,5.28
2023-01-29T15:36:29.109Z,6.55
2023-01-29T15:39:15.748Z,6.88
2023-01-29T15:41:43.629Z,5.63
2023-01-29T15:44:19.960Z,5.90
2023-01-29T15:46:59.321Z,4.47
2023-01-29T15:49:32.929Z,4.65
2023-01-29T15:52:04.246Z,5.80
2023-01-29T15:54:32.398Z,5.00
2023-01-29T15:56:59.883Z,5.10
2023-01-29T15:59:31.112Z,5.03
2023-01-29T16:01:57.928Z,4.13
2023-01-29T16:04:29.013Z,4.53
2023-01-29T16:06:57.175Z,5.00
2023-01-29T16:09:26.429Z,2.40
2023-01-29T16:11:57.395Z,4.57
2023-01-29T16:14:25.758Z,4.03
2023-01-29T16:16:53.186Z,4.72
2023-01-29T16:19:29.826Z,5.63
2023-01-29T16:22:03.279Z,2.20
2023-01-29T16:24:32.305Z,4.40
2023-01-29T16:27:12.738Z,4.60
2023-01-29T16:29:39.903Z,6.15
2023-01-29T16:32:07.020Z,5.40
2023-01-29T16:34:40.178Z,4.53
2023-01-29T16:37:37.319Z,3.10
2023-01-29T16:40:24.899Z,4.43
2023-01-29T16:43:18.805Z,4.63
2023-01-29T16:46:19.554Z,3.75
2023-01-29T16:48:47.785Z,3.47
2023-01-29T16:51:22.192Z,4.88
2023-01-29T16:54:01.407Z,4.00
2023-01-29T16:56:33.047Z,4.25
2023-01-29T16:59:02.214Z,4.45
2023-01-29T17:01:30.374Z,4.10
2023-01-29T17:04:02.003Z,4.88
2023-01-29T17:06:31.426Z,5.05
2023-01-29T17:08:58.433Z,5.30
2023-01-29T17:11:33.431Z,4.90
2023-01-29T17:14:00.857Z,3.75
2023-01-29T17:16:32.202Z,6.43
2023-01-29T17:19:00.289Z,4.72
2023-01-29T17:21:28.415Z,4.82
2023-01-29T17:23:55.186Z,3.78
2023-01-29T17:26:23.092Z,5.18
2023-01-29T17:28:51.635Z,3.25
2023-01-29T17:31:18.400Z,3.17
2023-01-29T17:33:45.986Z,4.78
2023-01-29T17:36:15.507Z,4.43
2023-01-29T17:38:42.397Z,4.35
2023-01-29T17:41:24.363Z,5.35
2023-01-29T17:43:51.041Z,5.80
2023-01-29T17:46:18.554Z,5.30
2023-01-29T17:48:46.750Z,3.75
2023-01-29T17:51:15.621Z,6.80
2023-01-29T17:53:46.063Z,4.13
2023-01-29T17:56:27.699Z,5.75
2023-01-29T17:58:54.443Z,4.72
2023-01-29T18:01:21.066Z,5.28
2023-01-29T18:03:47.690Z,3.95
2023-01-29T18:06:28.101Z,4.60
2023-01-29T18:08:54.788Z,3.78
2023-01-29T18:11:21.774Z,3.90
2023-01-29T18:13:48.384Z,5.90
2023-01-29T18:16:15.083Z,3.78
2023-01-29T18:18:41.746Z,3.72
2023-01-29T18:21:08.414Z,4.93
2023-01-29T18:23:35.144Z,5.25
2023-01-29T18:26:01.774Z,3.97
2023-01-29T18:28:28.480Z,6.15
2023-01-29T18:30:55.281Z,5.70
2023-01-29T18:33:24.155Z,6.10
2023-01-29T18:35:50.786Z,6.60
2023-01-29T18:38:17.883Z,6.50
2023-01-29T18:40:44.670Z,7.35
2023-01-29T18:43:11.620Z,4.72
2023-01-29T18:45:38.421Z,4.38
2023-01-29T18:48:05.581Z,5.97
2023-01-29T18:50:32.960Z,4.80
2023-01-29T18:53:04.417Z,7.55
2023-01-29T18:55:31.399Z,6.15
2023-01-29T18:58:27.974Z,6.00
2023-01-29T19:00:47.231Z,4.13
2023-01-29T19:03:13.884Z,6.10
2023-01-29T19:05:40.624Z,3.55
2023-01-29T19:08:07.650Z,6.53
2023-01-29T19:10:34.524Z,3.60
2023-01-29T19:13:01.733Z,7.65
2023-01-29T19:15:28.437Z,8.02
2023-01-29T19:17:56.099Z,7.97
2023-01-29T19:20:22.695Z,6.00
2023-01-29T19:22:49.393Z,5.32
2023-01-29T19:25:17.731Z,5.00
2023-01-29T19:27:45.411Z,4.63
2023-01-29T19:30:13.115Z,3.97
2023-01-29T19:32:40.502Z,8.35
2023-01-29T19:35:07.260Z,7.95
2023-01-29T19:37:33.919Z,5.25
2023-01-29T19:40:00.576Z,4.93
2023-01-29T19:42:28.163Z,7.25
2023-01-29T19:44:54.905Z,4.88
2023-01-29T19:47:21.712Z,6.15
2023-01-29T19:49:48.509Z,4.20
2023-01-29T19:52:49.831Z,4.55
2023-01-29T19:55:17.655Z,6.25
2023-01-29T19:57:44.639Z,5.15
2023-01-29T20:00:12.260Z,5.47
2023-01-29T20:02:39.018Z,6.03
2023-01-29T20:05:07.062Z,4.47
2023-01-29T20:07:36.044Z,5.80
2023-01-29T20:10:03.537Z,4.93
2023-01-29T20:12:30.257Z,4.70
2023-01-29T20:14:56.898Z,6.68
2023-01-29T20:17:23.616Z,5.50
2023-01-29T20:19:50.325Z,3.33
2023-01-29T20:22:17.009Z,4.63
2023-01-29T20:24:43.660Z,5.72
2023-01-29T20:27:11.007Z,5.90
2023-01-29T20:29:39.055Z,6.32
2023-01-29T20:32:08.796Z,8.05
2023-01-29T20:34:36.173Z,4.30
2023-01-29T20:37:03.042Z,6.65
2023-01-29T20:39:29.696Z,6.20
2023-01-29T20:41:57.386Z,5.90
2023-01-29T20:44:25.026Z,6.45
2023-01-29T20:46:52.132Z,6.75
2023-01-29T20:49:19.475Z,7.00
2023-01-29T20:51:46.338Z,3.40
2023-01-29T20:54:13.136Z,4.28
2023-01-29T20:56:45.594Z,4.18
2023-01-29T20:59:13.093Z,6.03
2023-01-29T21:01:39.789Z,4.75
2023-01-29T21:04:06.520Z,3.13
2023-01-29T21:06:33.500Z,4.72
2023-01-29T21:09:00.144Z,5.32
2023-01-29T21:11:26.818Z,6.18
2023-01-29T21:13:57.621Z,3.92
2023-01-29T21:16:26.346Z,4.82
2023-01-29T21:18:57.628Z,3.22
2023-01-29T21:21:26.552Z,3.10
2023-01-29T21:23:53.771Z,2.92
2023-01-29T21:26:20.541Z,4.70
2023-01-29T21:28:47.292Z,3.25
2023-01-29T21:31:16.973Z,2.40
2023-01-29T21:33:44.312Z,1.88
2023-01-29T21:36:11.515Z,2.53
2023-01-29T21:38:38.764Z,2.20
2023-01-29T21:41:08.982Z,1.85
2023-01-29T21:43:36.361Z,2.83
2023-01-29T21:46:05.290Z,2.17
2023-01-29T21:48:32.110Z,1.98
2023-01-29T21:50:58.788Z,2.30
2023-01-29T21:53:25.454Z,2.13
2023-01-29T21:55:52.283Z,2.95
2023-01-29T21:58:20.885Z,2.42
2023-01-29T22:00:48.882Z,1.83
2023-01-29T22:03:15.726Z,1.95
2023-01-29T22:05:42.578Z,2.90
2023-01-29T22:08:10.030Z,2.35
2023-01-29T22:10:37.121Z,1.75
2023-01-29T22:13:03.821Z,2.30
2023-01-29T22:15:30.900Z,1.80
2023-01-29T22:17:57.625Z,2.30
2023-01-29T22:20:30.143Z,1.55
2023-01-29T22:25:25.043Z,2.22
2023-01-29T22:27:51.767Z,1.75
2023-01-29T22:30:19.243Z,3.22
2023-01-29T22:32:46.151Z,1.27
2023-01-29T22:35:12.738Z,1.08
2023-01-29T22:37:39.452Z,1.42
2023-01-29T22:40:06.876Z,2.13
2023-01-29T22:42:33.524Z,1.90
2023-01-29T22:45:00.202Z,1.33
2023-01-29T22:47:26.838Z,1.60
2023-01-29T22:49:53.533Z,1.73
2023-01-29T22:52:23.080Z,1.65
2023-01-29T22:54:51.515Z,2.60
2023-01-29T22:57:19.304Z,1.13
2023-01-29T22:59:46.091Z,1.52
2023-01-29T23:02:12.729Z,1.65
2023-01-29T23:04:39.343Z,1.40
2023-01-29T23:07:05.990Z,1.60
2023-01-29T23:09:32.698Z,1.58
2023-01-29T23:11:59.461Z,2.00
2023-01-29T23:14:26.142Z,1.65
2023-01-29T23:16:52.816Z,0.98
2023-01-29T23:19:19.494Z,2.00
2023-01-29T23:21:46.141Z,0.95
2023-01-29T23:24:13.379Z,1.30
2023-01-29T23:26:58.492Z,1.50
2023-01-29T23:31:51.699Z,1.23
2023-01-29T23:34:18.448Z,1.20
2023-01-29T23:36:45.046Z,1.67
2023-01-29T23:39:12.192Z,3.00
2023-01-29T23:41:38.822Z,2.38
2023-01-29T23:44:05.627Z,2.03
2023-01-29T23:46:32.537Z,1.30
2023-01-29T23:48:59.297Z,2.20
2023-01-29T23:51:26.009Z,2.00
2023-01-29T23:53:53.097Z,2.38
2023-01-29T23:56:20.119Z,2.42
2023-01-29T23:58:47.120Z,1.58
